マレ の空港の天気 - METARとTAF

マレ国際空港 ( VRMM / MLE ) - モルディブ Hulhule Island, North Male Atoll
飛行場実況気象(Metar)
観測時間07/17 14:00 MVT (07/17 09:00 UTC)
風向・風速西 3m/s
視程10km以上
天気現象
少しの雲 雲底高度 520m
少しの雲 雲底高度 550m
全天を覆う雲 雲底高度 3050m
気温28℃
湿度84%
気圧1009hPa
METARVRMM 170900Z 26005KT 9999 FEW017 FEW018CB OVC100 28/25 Q1009 CB NW TEMPO 5000 -TSRA
過去の天気等 Google飛行場航空写真 Wunderground天気予報

過去48時間のMETAR

飛行場予報(TAF)
発表時間: 7/17 10:00 MVT (7/17 05:00 UTC)
予報対象時間: 17日11時 MVT ~ 18日17時 MVT
風向・風速西南西 7m/s
視程10km以上
全天の4割程度の塔状積雲 雲底高度 520m
17日11時 MVT ~ 17日17時 MVT に一時的に
風向・風速西 9m/s 瞬間風速 20m/s
視程4000m
天気現象雷雨
全天の4割程度の雲 雲底高度 490m
少しの積乱雲 雲底高度 520m
全天の8割程度の雲 雲底高度 3050m
TAF VRMM 170500Z 1706/1812 25014KT 9999 SCT017TCU
TEMPO 1706/1712 27018G38KT 4000 TSRA SCT016 FEW017CB BKN100